Time;durP1;ratioP1;P1;durP2;ratioP2;P2;SDS_P1;SDS_P2;PMS_P1;PMS_P2;Temp;Humidity;BMP_temperature;BMP_pressure;BME280_temperature;BME280_humidity;BME280_pressure;Samples;Min_cycle;Max_cycle;Signal;HPM_P1;HPM_P2
2022/06/23 00:02:06;;;;;;;4.30;2.20;;;;;;;20.43;69.09;96324.84;10415958;28;20026;-19
2022/06/23 00:07:17;;;;;;;7.75;2.50;;;;;;;20.40;69.54;96319.78;10408785;28;20127;-20
2022/06/23 00:12:35;;;;;;;11.05;2.90;;;;;;;20.41;69.41;96315.56;10405953;28;20044;-19
2022/06/23 00:17:44;;;;;;;7.82;2.35;;;;;;;20.42;69.19;96316.41;10404343;28;20076;-19
2022/06/23 00:22:52;;;;;;;7.82;2.78;;;;;;;20.40;69.25;96303.72;10404530;28;20033;-21
2022/06/23 00:27:53;;;;;;;10.18;2.85;;;;;;;20.34;69.44;96300.44;10408749;28;20026;-22
2022/06/23 00:32:54;;;;;;;9.70;3.45;;;;;;;20.34;69.57;96297.88;10411134;28;20029;-20
2022/06/23 00:37:54;;;;;;;8.80;2.13;;;;;;;20.36;69.30;96306.31;10407952;28;20052;-20
2022/06/23 00:42:57;;;;;;;7.73;3.40;;;;;;;20.37;69.17;96313.09;10409028;28;20029;-20
2022/06/23 00:48:08;;;;;;;6.60;2.53;;;;;;;20.38;68.96;96317.31;10410953;28;20284;-19
2022/06/23 00:53:11;;;;;;;10.43;3.25;;;;;;;20.28;69.11;96314.03;10405715;28;20110;-20
2022/06/23 00:58:30;;;;;;;9.30;2.33;;;;;;;20.24;69.22;96321.72;10415252;28;20044;-19
2022/06/23 01:03:37;;;;;;;13.20;4.57;;;;;;;20.22;69.17;96328.53;10411995;28;20041;-20
2022/06/23 01:08:47;;;;;;;7.97;2.30;;;;;;;20.28;68.72;96323.38;10406498;28;20484;-19
2022/06/23 01:14:28;;;;;;;10.70;3.20;;;;;;;20.16;68.86;96323.53;10406289;28;20052;-21
2022/06/23 01:19:50;;;;;;;8.20;2.30;;;;;;;20.20;68.83;96326.03;10398572;28;20045;-19
2022/06/23 01:25:17;;;;;;;8.00;3.25;;;;;;;20.16;68.75;96328.59;10401313;28;20037;-19
2022/06/23 01:30:20;;;;;;;11.52;2.60;;;;;;;20.14;68.88;96330.34;10405596;28;20038;-20
2022/06/23 01:35:26;;;;;;;6.85;2.20;;;;;;;20.10;68.77;96338.88;10408929;28;20029;-20
2022/06/23 01:40:32;;;;;;;9.43;2.58;;;;;;;20.12;68.66;96347.31;10405233;28;20330;-20
2022/06/23 01:45:43;;;;;;;;;;;;;;;20.05;68.34;96326.22;10400357;28;20044;-19
2022/06/23 01:50:52;;;;;;;5.07;2.38;;;;;;;20.08;68.35;96343.16;10408687;28;19927;-20
2022/06/23 01:56:08;;;;;;;5.68;2.70;;;;;;;20.09;68.06;96349.91;10413531;28;20038;-20
2022/06/23 02:01:17;;;;;;;9.13;2.50;;;;;;;20.06;68.29;96345.69;10408557;28;20119;-21
2022/06/23 02:06:25;;;;;;;6.15;1.92;;;;;;;20.07;68.16;96341.44;10403664;28;20042;-20
2022/06/23 02:11:47;;;;;;;7.30;2.65;;;;;;;20.01;68.54;96347.41;10405972;28;20417;-20
2022/06/23 02:17:15;;;;;;;7.40;2.10;;;;;;;20.02;68.01;96340.63;10403316;28;20037;-19
2022/06/23 02:22:34;;;;;;;8.90;2.30;;;;;;;19.98;68.02;96331.34;10404195;28;20041;-20
2022/06/23 02:27:47;;;;;;;5.75;2.10;;;;;;;20.01;67.74;96344.03;10395574;28;20033;-19
2022/06/23 02:33:13;;;;;;;8.30;2.92;;;;;;;20.01;67.68;96339.78;10405747;28;20038;-21
2022/06/23 02:38:42;;;;;;;12.35;2.42;;;;;;;20.03;67.60;96342.31;10401537;28;20029;-20
2022/06/23 02:43:47;;;;;;;4.18;1.83;;;;;;;20.06;67.19;96348.22;10398646;28;20063;-20
2022/06/23 02:49:32;;;;;;;10.85;2.90;;;;;;;20.07;67.05;96343.97;10405704;28;20036;-19
2022/06/23 02:54:46;;;;;;;7.97;2.03;;;;;;;20.04;66.99;96351.63;10403786;28;20053;-21
2022/06/23 02:59:57;;;;;;;8.18;2.88;;;;;;;19.98;67.41;96338.97;10403281;28;20119;-19
2022/06/23 03:05:13;;;;;;;5.22;1.92;;;;;;;19.98;67.10;96350.00;10408563;28;20026;-19
2022/06/23 03:10:24;;;;;;;8.13;3.40;;;;;;;19.94;67.19;96355.94;10404129;28;20508;-19
2022/06/23 03:15:30;;;;;;;5.55;1.50;;;;;;;19.96;67.14;96355.94;10402611;28;20372;-20
2022/06/23 03:20:44;;;;;;;8.50;2.25;;;;;;;19.91;66.90;96342.47;10400966;28;20026;-20
2022/06/23 03:26:02;;;;;;;7.93;2.03;;;;;;;19.94;66.92;96350.03;10394797;28;20534;-21
2022/06/23 03:31:16;;;;;;;6.35;2.47;;;;;;;19.98;66.73;96365.22;10402878;28;20053;-20
2022/06/23 03:36:35;;;;;;;7.55;1.80;;;;;;;19.97;66.78;96366.09;10401451;28;20044;-21
2022/06/23 03:41:49;;;;;;;8.88;2.65;;;;;;;20.00;66.21;96365.22;10402137;28;20118;-20
2022/06/23 03:47:12;;;;;;;7.22;2.25;;;;;;;19.90;67.13;96366.16;10412242;28;20037;-20
2022/06/23 03:52:19;;;;;;;7.70;2.25;;;;;;;19.77;67.82;96359.56;10419083;28;20044;-21
2022/06/23 03:57:34;;;;;;;7.80;2.17;;;;;;;19.59;68.35;96344.50;10414528;28;20095;-20
2022/06/23 04:02:42;;;;;;;9.27;2.30;;;;;;;19.62;68.80;96359.69;10406404;28;20124;-21
2022/06/23 04:07:55;;;;;;;6.22;1.75;;;;;;;19.60;68.76;96362.25;10400135;28;20116;-20
2022/06/23 04:13:03;;;;;;;14.60;1.90;;;;;;;19.60;68.95;96363.97;10399722;28;20125;-20
2022/06/23 04:18:12;;;;;;;7.35;2.17;;;;;;;19.59;69.16;96350.41;10404727;28;20060;-20
2022/06/23 04:23:27;;;;;;;4.18;2.20;;;;;;;19.63;68.88;96367.31;10394729;28;20037;-20
2022/06/23 04:28:33;;;;;;;6.07;1.88;;;;;;;19.70;68.58;96365.56;10400463;28;20029;-20
2022/06/23 04:33:38;;;;;;;5.55;1.83;;;;;;;19.64;68.99;96363.06;10401334;28;20084;-20
2022/06/23 04:38:49;;;;;;;9.23;2.42;;;;;;;19.63;69.15;96357.16;10406552;28;20040;-20
2022/06/23 04:43:55;;;;;;;13.05;2.25;;;;;;;20.16;66.91;96354.88;10409780;28;20076;-20
2022/06/23 04:48:57;;;;;;;9.02;2.00;;;;;;;20.45;65.70;96345.19;10408191;28;20026;-20
2022/06/23 04:54:41;;;;;;;10.77;2.35;;;;;;;20.76;64.91;96354.91;10406902;28;20108;-20
2022/06/23 04:59:58;;;;;;;12.88;3.05;;;;;;;20.84;64.08;96353.09;10400950;28;20040;-20
2022/06/23 05:05:08;;;;;;;8.85;2.55;;;;;;;20.87;64.77;96347.97;10412220;28;20073;-20
2022/06/23 05:10:19;;;;;;;12.98;2.15;;;;;;;20.93;64.37;96352.13;10409316;28;20041;-21
2022/06/23 05:15:26;;;;;;;8.88;1.92;;;;;;;20.96;64.22;96352.91;10402588;28;20033;-21
2022/06/23 05:20:31;;;;;;;18.08;3.03;;;;;;;21.08;65.08;96352.75;10410008;28;20037;-19
2022/06/23 05:25:40;;;;;;;13.98;3.15;;;;;;;21.19;65.19;96355.94;10398073;28;20603;-20
2022/06/23 05:30:49;;;;;;;10.15;2.40;;;;;;;21.26;63.77;96359.22;10405472;28;20056;-21
2022/06/23 05:35:53;;;;;;;10.90;2.03;;;;;;;21.20;63.75;96365.25;10405962;28;20120;-19
2022/06/23 05:40:56;;;;;;;8.85;1.83;;;;;;;21.14;63.66;96365.34;10408530;28;20033;-19
2022/06/23 05:46:00;;;;;;;7.35;2.40;;;;;;;21.13;63.74;96370.47;10405919;28;20392;-19
2022/06/23 05:51:09;;;;;;;5.22;2.10;;;;;;;21.12;63.59;96364.53;10406047;28;20038;-19
2022/06/23 05:56:20;;;;;;;8.75;2.35;;;;;;;21.15;63.38;96367.03;10414141;28;20415;-20
2022/06/23 06:01:48;;;;;;;9.65;2.13;;;;;;;21.14;63.56;96367.91;10411065;28;20408;-19
2022/06/23 06:06:49;;;;;;;9.35;3.00;;;;;;;21.15;63.29;96363.66;10398576;28;20516;-19
2022/06/23 06:11:52;;;;;;;7.88;3.03;;;;;;;21.22;64.23;96360.97;10405111;28;20030;-19
2022/06/23 06:16:56;;;;;;;3.95;1.75;;;;;;;21.41;63.06;96367.44;10406169;28;20116;-20
2022/06/23 06:22:10;;;;;;;4.10;1.65;;;;;;;21.44;63.19;96364.84;10405030;28;20443;-21
2022/06/23 06:27:13;;;;;;;5.10;1.58;;;;;;;21.34;63.08;96365.88;10404272;28;20037;-20
2022/06/23 06:32:19;;;;;;;7.55;2.35;;;;;;;21.28;62.80;96354.94;10406317;28;20132;-21
2022/06/23 06:37:26;;;;;;;7.72;1.85;;;;;;;21.24;63.08;96349.06;10402263;28;20539;-19
2022/06/23 06:42:32;;;;;;;2.92;1.42;;;;;;;21.21;63.56;96343.19;10404318;28;20488;-21
2022/06/23 06:47:40;;;;;;;6.78;2.03;;;;;;;21.24;63.07;96354.13;10402931;28;20037;-19
2022/06/23 06:52:40;;;;;;;4.72;1.88;;;;;;;21.23;63.19;96355.00;10400515;28;20120;-19
2022/06/23 06:57:45;;;;;;;5.97;1.87;;;;;;;21.24;63.07;96340.59;10409154;28;20037;-20
2022/06/23 07:02:56;;;;;;;6.80;1.90;;;;;;;21.26;64.36;96328.66;10407979;28;20175;-19
2022/06/23 07:08:18;;;;;;;5.38;1.42;;;;;;;21.51;62.96;96327.38;10397197;28;20036;-20
2022/06/23 07:13:29;;;;;;;4.05;1.75;;;;;;;21.45;62.51;96324.94;10402802;28;20403;-19
2022/06/23 07:18:49;;;;;;;3.88;1.85;;;;;;;21.41;62.49;96326.69;10405374;28;20144;-20
2022/06/23 07:23:57;;;;;;;5.88;2.05;;;;;;;21.31;62.89;96325.16;10402753;28;20514;-19
2022/06/23 07:29:05;;;;;;;6.90;1.42;;;;;;;21.28;62.97;96325.22;10402445;28;20091;-20
2022/06/23 07:34:09;;;;;;;9.68;2.58;;;;;;;21.29;62.86;96323.53;10404153;28;20524;-20
2022/06/23 07:39:14;;;;;;;6.15;3.15;;;;;;;21.29;63.02;96321.00;10399915;28;20079;-22
2022/06/23 07:44:21;;;;;;;6.45;1.90;;;;;;;21.27;62.81;96313.38;10402486;28;20550;-20
2022/06/23 07:49:22;;;;;;;;;;;;;;;21.27;62.93;96312.53;10404999;28;20120;-21
2022/06/23 07:54:23;;;;;;;7.70;2.05;;;;;;;21.38;64.17;96311.47;10402164;28;20435;-20
2022/06/23 07:59:39;;;;;;;5.05;1.60;;;;;;;21.57;62.92;96311.97;10409515;28;20042;-19
2022/06/23 08:05:08;;;;;;;3.17;1.13;;;;;;;21.55;62.72;96309.44;10401451;28;20048;-19
2022/06/23 08:10:16;;;;;;;5.43;2.85;;;;;;;21.44;62.62;96310.50;10404074;28;20111;-20
2022/06/23 08:21:03;;;;;;;7.90;2.28;;;;;;;21.35;62.60;96301.34;10405299;28;20051;-19
2022/06/23 08:26:07;;;;;;;5.72;1.80;;;;;;;21.32;62.82;96290.38;10407895;28;20029;-20
2022/06/23 08:31:07;;;;;;;4.75;1.80;;;;;;;21.31;62.78;96289.53;10409298;28;20037;-21
2022/06/23 08:36:11;;;;;;;5.43;1.80;;;;;;;21.31;62.74;96279.34;10406760;28;20551;-20
2022/06/23 08:41:23;;;;;;;7.70;1.67;;;;;;;21.30;62.71;96267.47;10409492;28;20063;-20
2022/06/23 08:46:40;;;;;;;6.18;1.60;;;;;;;21.49;63.04;96263.72;10409113;28;20026;-20
2022/06/23 08:52:04;;;;;;;3.90;1.27;;;;;;;21.66;62.65;96265.97;10402415;28;20409;-19
2022/06/23 08:57:16;;;;;;;1.83;1.10;;;;;;;21.56;62.50;96267.81;10414856;28;20021;-20
2022/06/23 09:02:35;;;;;;;4.95;1.58;;;;;;;21.45;62.30;96256.16;10411479;28;20037;-20
2022/06/23 09:07:35;;;;;;;4.78;1.80;;;;;;;21.39;62.56;96246.94;10408323;28;20091;-21
2022/06/23 09:13:00;;;;;;;5.22;1.50;;;;;;;21.38;62.40;96255.44;10407371;28;20067;-19
2022/06/23 09:18:09;;;;;;;7.30;2.17;;;;;;;21.36;62.52;96241.91;10410243;28;20104;-20
2022/06/23 09:23:37;;;;;;;5.82;2.28;;;;;;;21.36;62.77;96244.44;10403017;28;20112;-19
2022/06/23 09:29:01;;;;;;;11.15;2.08;;;;;;;21.35;62.77;96245.31;10407095;28;20083;-19
2022/06/23 09:34:38;;;;;;;6.50;2.30;;;;;;;21.39;62.83;96241.84;10404699;28;20030;-20
2022/06/23 09:40:04;;;;;;;7.77;1.83;;;;;;;21.64;62.79;96237.13;10405826;28;20041;-21
2022/06/23 09:45:42;;;;;;;1.95;1.10;;;;;;;21.68;62.26;96249.81;10403465;28;20041;-21
2022/06/23 09:50:49;;;;;;;4.10;1.60;;;;;;;21.57;62.40;96235.56;10404471;28;20140;-20
2022/06/23 09:56:27;;;;;;;6.47;1.50;;;;;;;21.48;62.29;96230.66;10414715;28;20037;-20
2022/06/23 10:01:45;;;;;;;7.32;2.13;;;;;;;21.45;62.43;96239.19;10429171;28;20044;-19
2022/06/23 10:07:12;;;;;;;5.07;1.92;;;;;;;21.38;62.46;96229.16;10396535;28;20044;-21
2022/06/23 10:12:42;;;;;;;6.28;1.70;;;;;;;21.41;62.36;96229.91;10403336;28;20041;-19
2022/06/23 10:18:13;;;;;;;4.88;1.80;;;;;;;21.42;62.53;96231.59;10407936;28;20454;-19
2022/06/23 10:23:26;;;;;;;6.97;2.00;;;;;;;21.41;62.68;96224.00;10403267;28;20124;-19
2022/06/23 10:28:51;;;;;;;3.97;1.83;;;;;;;21.57;63.31;96210.91;10403567;28;20040;-21
2022/06/23 10:34:25;;;;;;;5.22;1.17;;;;;;;21.76;62.56;96214.81;10403128;28;20038;-21
2022/06/23 10:39:40;;;;;;;3.70;1.95;;;;;;;21.64;62.39;96207.38;10406788;28;20444;-19
2022/06/23 10:44:43;;;;;;;11.85;2.90;;;;;;;21.54;62.42;96218.63;10395315;28;20471;-20
2022/06/23 10:50:05;;;;;;;6.53;2.10;;;;;;;21.49;62.52;96212.75;10405422;28;20109;-20
2022/06/23 10:55:23;;;;;;;9.13;2.72;;;;;;;21.44;62.44;96199.31;10404086;28;20072;-21
2022/06/23 11:00:51;;;;;;;8.43;2.78;;;;;;;21.45;62.64;96211.16;10398939;28;20423;-19
2022/06/23 11:06:10;;;;;;;8.80;2.40;;;;;;;21.43;62.52;96186.59;10399285;28;20064;-19
2022/06/23 11:11:34;;;;;;;7.75;3.13;;;;;;;21.39;62.41;96183.25;10401077;28;20234;-19
2022/06/23 11:17:01;;;;;;;6.05;3.13;;;;;;;21.41;62.72;96184.06;10400634;28;20034;-20
2022/06/23 11:22:30;;;;;;;5.30;2.67;;;;;;;21.68;63.15;96173.38;10395567;28;20034;-19
2022/06/23 11:28:09;;;;;;;3.53;1.30;;;;;;;21.74;61.99;96173.22;10384964;28;20041;-22
2022/06/23 11:33:29;;;;;;;3.30;1.65;;;;;;;21.59;62.19;96170.97;10400119;28;20503;-19
2022/06/23 11:39:01;;;;;;;8.77;2.55;;;;;;;21.54;62.19;96170.22;10405564;28;20045;-20
2022/06/23 11:44:09;;;;;;;6.55;3.00;;;;;;;21.48;62.38;96160.16;10401436;28;20048;-20
2022/06/23 11:49:21;;;;;;;7.15;2.00;;;;;;;21.48;62.48;96155.06;10408210;28;20049;-23
2022/06/23 11:54:40;;;;;;;9.35;2.33;;;;;;;21.47;62.82;96153.38;10406794;28;20046;-20
2022/06/23 12:00:05;;;;;;;10.77;2.80;;;;;;;21.47;62.37;96142.38;10402793;28;20041;-19
2022/06/23 12:05:28;;;;;;;5.95;2.20;;;;;;;21.44;62.62;96139.88;10408405;28;20095;-22
2022/06/23 12:10:32;;;;;;;4.65;1.75;;;;;;;21.58;63.49;96120.06;10412378;28;20079;-19
2022/06/23 12:15:38;;;;;;;5.10;1.98;;;;;;;21.79;62.67;96120.44;10408573;28;20032;-20
2022/06/23 12:20:49;;;;;;;4.00;2.05;;;;;;;21.75;62.45;96126.50;10409363;28;20022;-20
2022/06/23 12:26:02;;;;;;;8.13;2.80;;;;;;;21.60;62.85;96114.06;10409629;28;20033;-20
2022/06/23 12:31:35;;;;;;;9.98;2.47;;;;;;;21.56;62.66;96112.44;10409462;28;20096;-21
2022/06/23 12:36:59;;;;;;;12.45;2.65;;;;;;;21.57;63.00;96110.75;10404698;28;20526;-19
2022/06/23 12:42:08;;;;;;;6.40;1.92;;;;;;;21.51;63.32;96098.97;10404219;28;20029;-20
2022/06/23 12:47:41;;;;;;;9.27;3.22;;;;;;;21.49;63.04;96099.88;10409329;28;20427;-19
2022/06/23 12:53:11;;;;;;;11.93;2.67;;;;;;;21.52;63.05;96080.28;10403028;28;20049;-20
2022/06/23 12:58:28;;;;;;;11.75;2.97;;;;;;;21.47;63.06;96071.88;10412990;28;20049;-20
2022/06/23 13:03:43;;;;;;;13.48;2.55;;;;;;;21.68;63.67;96063.81;10409874;28;20040;-24
2022/06/23 13:09:09;;;;;;;6.65;2.50;;;;;;;21.85;62.87;96061.69;10405911;28;20037;-19
2022/06/23 13:14:18;;;;;;;12.43;1.83;;;;;;;21.74;62.76;96048.34;10407400;28;20033;-20
2022/06/23 13:19:27;;;;;;;9.43;2.65;;;;;;;21.61;62.86;96046.94;10408885;28;20041;-20
2022/06/23 13:24:27;;;;;;;16.10;4.13;;;;;;;21.63;63.17;96047.75;10409043;28;20109;-20
2022/06/23 13:29:36;;;;;;;26.03;4.57;;;;;;;21.62;63.30;96040.97;10409232;28;20037;-20
2022/06/23 13:34:46;;;;;;;15.13;4.25;;;;;;;21.58;62.78;96044.47;10401031;28;20825;-20
2022/06/23 13:39:59;;;;;;;12.95;3.70;;;;;;;21.57;62.81;96047.88;10404569;28;20048;-20
2022/06/23 13:45:30;;;;;;;18.42;4.10;;;;;;;21.55;62.58;96036.06;10406104;28;20423;-19
2022/06/23 13:50:48;;;;;;;13.63;3.20;;;;;;;21.56;62.57;96030.09;10406032;28;20038;-21
2022/06/23 13:56:01;;;;;;;11.40;2.28;;;;;;;21.75;63.54;96014.38;10402746;28;20416;-19
2022/06/23 14:01:12;;;;;;;4.25;1.95;;;;;;;21.87;62.45;96000.47;10408902;28;20369;-20
2022/06/23 14:06:18;;;;;;;7.25;1.70;;;;;;;21.76;62.85;96008.41;10403052;28;20034;-20
2022/06/23 14:11:43;;;;;;;7.05;2.05;;;;;;;21.69;62.63;95996.69;10407019;28;20096;-19
2022/06/23 14:17:22;;;;;;;8.63;2.53;;;;;;;21.64;62.47;95995.09;10405796;28;20042;-20
2022/06/23 14:22:46;;;;;;;9.25;2.72;;;;;;;21.59;62.41;95968.88;10402598;28;20042;-19
2022/06/23 14:28:05;;;;;;;11.10;3.05;;;;;;;21.58;62.51;95962.97;10403375;28;20190;-19
2022/06/23 14:33:24;;;;;;;9.98;3.40;;;;;;;21.58;62.61;95973.16;10403104;28;20037;-21
2022/06/23 14:38:49;;;;;;;6.88;2.45;;;;;;;21.59;62.61;95979.06;10403879;28;20072;-19
2022/06/23 14:44:28;;;;;;;8.38;2.53;;;;;;;21.66;65.11;95978.09;10399680;28;20546;-19
2022/06/23 14:49:46;;;;;;;4.75;2.22;;;;;;;21.86;62.90;95974.19;10405532;28;20370;-19
2022/06/23 14:55:18;;;;;;;3.58;1.02;;;;;;;21.84;62.58;95969.97;10397790;28;20446;-21
2022/06/23 15:00:50;;;;;;;3.55;1.85;;;;;;;21.73;62.45;95966.88;10405880;28;20056;-19
2022/06/23 15:05:59;;;;;;;8.63;2.00;;;;;;;21.67;62.43;95957.69;10402357;28;20045;-20
2022/06/23 15:11:06;;;;;;;6.20;2.33;;;;;;;21.57;62.33;95940.06;10398502;28;20554;-22
2022/06/23 15:16:17;;;;;;;8.43;2.70;;;;;;;21.55;62.35;95932.44;10400662;28;20484;-20
2022/06/23 15:26:50;;;;;;;6.30;2.33;;;;;;;21.58;62.49;95937.50;10401511;28;20045;-21
2022/06/23 15:32:02;;;;;;;4.82;1.75;;;;;;;21.56;62.39;95939.22;10405470;28;20133;-20
2022/06/23 15:37:05;;;;;;;5.85;1.70;;;;;;;21.70;63.54;95928.72;10399121;28;20049;-19
2022/06/23 15:42:16;;;;;;;8.48;1.80;;;;;;;21.89;62.95;95918.03;10403090;28;20029;-20
2022/06/23 15:47:31;;;;;;;3.65;1.90;;;;;;;21.84;62.76;95929.22;10404864;28;20049;-23
2022/06/23 15:52:45;;;;;;;6.50;2.25;;;;;;;21.75;62.61;95922.66;10399231;28;20034;-19
2022/06/23 15:57:54;;;;;;;11.45;2.60;;;;;;;21.66;62.45;95910.13;10402587;28;20037;-20
2022/06/23 16:03:04;;;;;;;7.10;2.45;;;;;;;21.67;62.76;95901.63;10405457;28;20028;-22
2022/06/23 16:08:12;;;;;;;11.55;2.35;;;;;;;21.64;62.30;95891.47;10401888;28;20045;-21
2022/06/23 16:13:20;;;;;;;20.80;4.32;;;;;;;21.61;62.44;95883.91;10401686;28;20080;-20
2022/06/23 16:18:30;;;;;;;6.53;2.30;;;;;;;21.63;62.54;95874.50;10399297;28;20116;-23
2022/06/23 16:23:39;;;;;;;17.70;3.72;;;;;;;21.57;62.59;95859.38;10412344;28;20040;-20
2022/06/23 16:28:47;;;;;;;3.50;1.83;;;;;;;21.73;63.74;95863.22;10399739;28;20405;-19
2022/06/23 16:33:57;;;;;;;4.43;1.90;;;;;;;21.94;65.16;95869.47;10403125;28;20083;-20
2022/06/23 16:39:03;;;;;;;2.53;0.90;;;;;;;21.88;63.40;95870.47;10407720;28;20373;-21
2022/06/23 16:44:13;;;;;;;4.18;1.80;;;;;;;21.78;63.05;95866.50;10404787;28;20484;-19
2022/06/23 16:49:25;;;;;;;4.18;1.92;;;;;;;21.73;62.61;95875.16;10407863;28;20492;-19
2022/06/23 16:54:32;;;;;;;6.20;2.70;;;;;;;21.70;62.49;95880.31;10410289;28;20030;-20
2022/06/23 16:59:34;;;;;;;8.55;2.95;;;;;;;21.67;62.44;95886.34;10405745;28;20048;-19
2022/06/23 17:04:46;;;;;;;6.93;2.33;;;;;;;21.65;62.51;95888.06;10413063;28;20022;-20
2022/06/23 17:09:53;;;;;;;6.40;2.40;;;;;;;21.63;62.45;95894.91;10413382;28;20076;-21
2022/06/23 17:15:04;;;;;;;5.13;2.10;;;;;;;21.69;65.15;95910.06;10406895;28;20057;-19
2022/06/23 17:20:08;;;;;;;4.35;1.42;;;;;;;21.93;62.96;95919.63;10411320;28;20041;-20
2022/06/23 17:25:15;;;;;;;2.67;1.23;;;;;;;21.91;62.38;95915.44;10411955;28;20056;-20
2022/06/23 17:30:24;;;;;;;3.85;1.25;;;;;;;21.77;62.45;95923.44;10414169;28;20033;-19
2022/06/23 17:35:52;;;;;;;8.10;2.22;;;;;;;21.67;63.07;95932.19;10408065;28;20037;-19
2022/06/23 17:46:40;;;;;;;7.00;1.92;;;;;;;21.65;62.52;95928.00;10386835;28;20335;-21
2022/06/23 17:51:40;;;;;;;3.78;1.60;;;;;;;21.61;62.47;95916.19;10402976;28;20029;-21
2022/06/23 17:56:49;;;;;;;3.65;1.20;;;;;;;21.81;63.67;95904.63;10398745;28;20044;-20
2022/06/23 18:01:57;;;;;;;2.50;0.93;;;;;;;22.00;62.37;95899.91;10395463;28;20188;-22
2022/06/23 18:06:58;;;;;;;4.00;1.30;;;;;;;21.85;62.70;95911.34;10387751;28;20112;-21
2022/06/23 18:12:06;;;;;;;2.33;1.27;;;;;;;21.71;62.41;95936.34;10393687;28;20066;-20
2022/06/23 18:17:31;;;;;;;9.65;2.33;;;;;;;21.76;62.62;95965.09;10396098;28;20149;-21
2022/06/23 18:22:40;;;;;;;5.90;2.78;;;;;;;21.97;67.77;96069.03;10390297;28;20404;-22
2022/06/23 18:27:55;;;;;;;7.72;2.33;;;;;;;21.87;64.21;96098.19;10395686;28;20041;-21
2022/06/23 18:33:15;;;;;;;4.30;2.20;;;;;;;21.78;63.05;96149.34;10401651;28;20415;-21
2022/06/23 18:38:25;;;;;;;4.10;1.67;;;;;;;21.79;64.84;96185.84;10399472;28;20033;-23
2022/06/23 18:43:39;;;;;;;3.80;1.70;;;;;;;21.87;63.96;96220.50;10384879;28;20275;-23
2022/06/23 18:48:43;;;;;;;1.67;1.00;;;;;;;22.05;63.12;96199.72;10403782;28;20055;-24
2022/06/23 18:53:54;;;;;;;4.55;1.25;;;;;;;21.92;63.63;96228.91;10386698;28;20496;-21
2022/06/23 18:59:02;;;;;;;2.53;1.42;;;;;;;21.76;62.89;96288.72;10381415;28;20040;-21
2022/06/23 19:04:31;;;;;;;8.05;2.15;;;;;;;21.79;62.62;96339.59;10380764;28;20040;-21
2022/06/23 19:09:46;;;;;;;7.60;1.50;;;;;;;21.74;62.73;96305.72;10366009;28;20085;-21
2022/06/23 19:15:18;;;;;;;7.82;1.65;;;;;;;21.66;62.50;96299.09;10406127;28;20098;-20
2022/06/23 19:20:26;;;;;;;3.53;1.50;;;;;;;21.64;62.77;96296.53;10378950;28;20038;-20
2022/06/23 19:25:46;;;;;;;4.82;1.70;;;;;;;21.64;62.34;96314.38;10397322;28;20033;-23
2022/06/23 19:31:11;;;;;;;4.00;1.30;;;;;;;21.72;64.50;96314.28;10371057;28;20037;-22
2022/06/23 19:36:20;;;;;;;1.35;0.90;;;;;;;21.94;62.85;96334.22;10365231;28;20116;-22
2022/06/23 19:41:29;;;;;;;1.85;0.75;;;;;;;21.94;62.70;96313.81;10366720;28;20112;-21
2022/06/23 19:46:30;;;;;;;1.92;0.90;;;;;;;21.79;62.40;96311.56;10377002;28;20551;-21
2022/06/23 19:51:34;;;;;;;3.65;1.20;;;;;;;21.72;62.22;96302.38;10416873;28;20041;-20
2022/06/23 19:56:37;;;;;;;2.95;1.02;;;;;;;21.67;62.30;96304.19;10404287;28;20037;-22
2022/06/23 20:01:41;;;;;;;1.65;0.88;;;;;;;21.64;62.47;96293.16;10365995;28;20072;-21
2022/06/23 20:06:47;;;;;;;6.50;1.30;;;;;;;21.63;62.41;96282.13;10368367;28;20033;-21
2022/06/23 20:12:00;;;;;;;1.10;0.80;;;;;;;21.63;62.08;96266.84;10373805;28;20124;-20
2022/06/23 20:17:25;;;;;;;2.35;0.77;;;;;;;21.62;62.23;96264.31;10373047;28;20378;-20
2022/06/23 20:22:38;;;;;;;3.30;0.90;;;;;;;21.78;63.35;96265.72;10407472;28;20222;-20
2022/06/23 20:27:56;;;;;;;1.13;0.77;;;;;;;21.97;62.68;96251.75;10406283;28;20128;-21
2022/06/23 20:33:11;;;;;;;2.10;0.82;;;;;;;21.87;62.75;96235.81;10371565;28;20053;-21
2022/06/23 20:38:30;;;;;;;1.92;1.05;;;;;;;21.71;62.37;96229.34;10386737;28;20037;-21
2022/06/23 20:43:48;;;;;;;1.25;0.80;;;;;;;21.63;62.41;96226.06;10395036;28;20108;-21
2022/06/23 20:49:13;;;;;;;1.48;0.80;;;;;;;21.61;62.57;96216.78;10440941;28;20056;-22
2022/06/23 20:54:31;;;;;;;1.75;0.77;;;;;;;21.59;62.50;96213.44;10427829;28;20112;-21
2022/06/23 20:59:48;;;;;;;2.25;0.70;;;;;;;21.58;62.66;96216.84;10427661;28;20029;-21
2022/06/23 21:04:58;;;;;;;1.55;0.80;;;;;;;21.55;62.62;96210.09;10441841;28;20300;-21
2022/06/23 21:10:05;;;;;;;3.17;1.02;;;;;;;21.55;62.85;96202.47;10376454;28;20228;-21
2022/06/23 21:15:18;;;;;;;5.05;1.20;;;;;;;21.85;64.99;96191.69;10412722;28;20096;-20
2022/06/23 21:20:58;;;;;;;2.58;1.10;;;;;;;21.93;64.58;96194.91;10454235;28;20140;-21
2022/06/23 21:26:03;;;;;;;5.25;0.93;;;;;;;21.78;62.50;96200.31;10435163;28;20041;-21
2022/06/23 21:31:10;;;;;;;3.30;0.95;;;;;;;21.51;63.39;96189.81;10434585;28;20037;-20
2022/06/23 21:36:16;;;;;;;4.22;1.63;;;;;;;20.89;67.94;96183.38;10434789;28;20064;-20
2022/06/23 21:41:25;;;;;;;7.70;1.20;;;;;;;20.74;69.31;96206.53;10430336;28;20041;-21
2022/06/23 21:46:34;;;;;;;3.75;1.00;;;;;;;20.65;69.80;96198.19;10436625;28;20454;-20
2022/06/23 21:51:43;;;;;;;3.95;1.20;;;;;;;20.61;70.18;96210.13;10431872;28;20419;-21
2022/06/23 21:57:22;;;;;;;5.45;1.38;;;;;;;20.57;70.22;96217.84;10369762;28;20033;-20
2022/06/23 22:02:28;;;;;;;4.28;1.42;;;;;;;20.63;70.24;96226.19;10369151;28;20041;-21
2022/06/23 22:07:47;;;;;;;3.35;1.55;;;;;;;20.63;70.82;96231.28;10370105;28;20069;-20
2022/06/23 22:12:56;;;;;;;4.93;1.20;;;;;;;20.55;71.34;96225.47;10369107;28;20459;-20
2022/06/23 22:17:58;;;;;;;4.30;1.38;;;;;;;20.52;71.50;96232.31;10370085;28;20041;-20
2022/06/23 22:23:12;;;;;;;4.95;1.92;;;;;;;20.53;71.51;96241.63;10383482;28;20039;-20
2022/06/23 22:28:12;;;;;;;7.78;1.80;;;;;;;20.54;71.25;96233.97;10418721;28;20466;-20
2022/06/23 22:33:34;;;;;;;6.83;1.60;;;;;;;20.55;71.40;96245.81;10368227;28;20041;-20
2022/06/23 22:38:35;;;;;;;4.20;1.80;;;;;;;20.51;71.68;96251.84;10368316;28;20116;-20
2022/06/23 22:43:37;;;;;;;5.82;1.30;;;;;;;20.51;71.84;96256.06;10367806;28;20136;-20
2022/06/23 22:48:37;;;;;;;4.40;1.17;;;;;;;20.48;71.78;96262.03;10369355;28;20050;-20
2022/06/23 22:53:53;;;;;;;3.92;1.23;;;;;;;20.49;71.82;96263.75;10366196;28;20108;-20
2022/06/23 22:58:53;;;;;;;4.80;1.25;;;;;;;20.51;72.12;96256.94;10365849;28;20469;-20
2022/06/23 23:04:04;;;;;;;7.35;1.70;;;;;;;20.45;72.10;96257.00;10365823;28;20060;-20
2022/06/23 23:09:24;;;;;;;5.05;2.38;;;;;;;20.45;72.56;96262.09;10366486;28;20125;-20
2022/06/23 23:14:39;;;;;;;6.03;2.70;;;;;;;20.47;72.15;96245.09;10365601;28;20088;-21
2022/06/23 23:19:40;;;;;;;6.68;1.75;;;;;;;20.47;72.15;96240.03;10366458;28;20080;-20
2022/06/23 23:24:41;;;;;;;6.35;2.35;;;;;;;20.44;71.97;96229.06;10409642;28;20040;-20
2022/06/23 23:29:53;;;;;;;5.05;1.98;;;;;;;20.45;72.11;96223.13;10393326;28;20037;-20
2022/06/23 23:34:56;;;;;;;4.22;1.63;;;;;;;20.42;72.16;96221.47;10367276;28;20034;-20
2022/06/23 23:40:18;;;;;;;6.13;1.98;;;;;;;20.39;72.40;96226.59;10365348;28;20518;-20
2022/06/23 23:45:20;;;;;;;6.20;1.80;;;;;;;20.43;72.17;96215.50;10366303;28;20092;-21
2022/06/23 23:50:25;;;;;;;9.10;1.85;;;;;;;20.43;72.19;96201.94;10332365;28;1058954;-21
2022/06/23 23:55:32;;;;;;;7.10;1.98;;;;;;;20.40;72.08;96218.09;10368814;28;20433;-22
